createdAt,value
2023-02-07T00:02:17.465Z,0.71
2023-02-07T00:07:20.806Z,0.73
2023-02-07T00:12:24.122Z,0.74
2023-02-07T00:17:30.098Z,0.78
2023-02-07T00:22:33.809Z,0.82
2023-02-07T00:27:37.070Z,0.82
2023-02-07T00:32:40.433Z,0.80
2023-02-07T00:37:43.643Z,0.80
2023-02-07T00:42:46.849Z,0.77
2023-02-07T00:47:50.278Z,0.79
2023-02-07T00:52:53.576Z,0.81
2023-02-07T00:57:56.780Z,0.83
2023-02-07T01:03:00.000Z,0.84
2023-02-07T01:08:03.416Z,0.83
2023-02-07T01:13:06.816Z,0.83
2023-02-07T01:18:10.245Z,0.83
2023-02-07T01:23:15.486Z,0.82
2023-02-07T01:28:18.833Z,0.82
2023-02-07T01:33:22.009Z,0.79
2023-02-07T01:38:25.324Z,0.78
2023-02-07T01:43:28.834Z,0.81
2023-02-07T01:48:36.034Z,0.83
2023-02-07T01:53:40.704Z,0.82
2023-02-07T01:58:44.547Z,0.82
2023-02-07T02:03:50.974Z,0.79
2023-02-07T02:08:59.620Z,0.76
2023-02-07T02:14:08.864Z,0.77
2023-02-07T02:19:32.663Z,0.78
2023-02-07T02:25:18.549Z,0.82
2023-02-07T02:30:35.622Z,0.85
2023-02-07T02:35:57.961Z,0.84
2023-02-07T02:41:11.819Z,0.84
2023-02-07T02:46:22.571Z,0.85
2023-02-07T02:51:30.137Z,0.83
2023-02-07T02:56:45.416Z,0.83
2023-02-07T03:02:05.219Z,0.80
2023-02-07T03:07:43.431Z,0.78
2023-02-07T03:13:15.936Z,0.78
2023-02-07T03:18:32.754Z,0.76
2023-02-07T03:23:38.522Z,0.75
2023-02-07T03:28:43.367Z,0.77
2023-02-07T03:33:51.694Z,0.77
2023-02-07T03:38:55.518Z,0.77
2023-02-07T03:44:07.223Z,0.80
2023-02-07T03:49:12.088Z,0.82
2023-02-07T03:54:15.483Z,0.84
2023-02-07T03:59:19.101Z,0.84
2023-02-07T04:04:22.829Z,0.80
2023-02-07T04:09:26.341Z,0.77
2023-02-07T04:14:29.957Z,0.76
2023-02-07T04:19:33.683Z,0.75
2023-02-07T04:24:37.296Z,0.74
2023-02-07T04:29:40.720Z,0.75
2023-02-07T04:34:44.222Z,0.76
2023-02-07T04:39:47.947Z,0.76
2023-02-07T04:44:51.462Z,0.74
2023-02-07T04:49:55.073Z,0.72
2023-02-07T04:54:58.797Z,0.71
2023-02-07T05:00:03.844Z,0.70
2023-02-07T05:05:08.182Z,0.69
2023-02-07T05:10:11.496Z,0.68
2023-02-07T05:15:15.114Z,0.67
2023-02-07T05:20:19.907Z,0.65
2023-02-07T05:25:23.683Z,0.65
2023-02-07T05:30:27.393Z,0.66
2023-02-07T05:35:42.287Z,0.67
2023-02-07T05:40:46.371Z,0.66
2023-02-07T05:45:49.977Z,0.64
2023-02-07T05:50:53.644Z,0.63
2023-02-07T05:55:57.267Z,0.63
2023-02-07T06:01:00.879Z,0.63
2023-02-07T06:06:04.715Z,0.64
2023-02-07T06:11:08.322Z,0.66
2023-02-07T06:16:12.014Z,0.68
2023-02-07T06:21:15.656Z,0.73
2023-02-07T06:26:19.276Z,0.73
2023-02-07T06:31:22.957Z,0.76
2023-02-07T06:36:26.920Z,0.82
2023-02-07T06:41:30.454Z,0.83
2023-02-07T06:46:34.177Z,0.87
2023-02-07T06:51:37.776Z,0.88
2023-02-07T06:56:41.397Z,0.88
2023-02-07T07:01:44.977Z,0.90
2023-02-07T07:06:48.598Z,0.98
2023-02-07T07:11:52.151Z,1.07
2023-02-07T07:16:56.855Z,1.16
2023-02-07T07:22:01.025Z,1.26
2023-02-07T07:27:04.852Z,1.32
2023-02-07T07:32:08.361Z,1.37
2023-02-07T07:37:15.054Z,1.51
2023-02-07T07:42:18.564Z,1.60
2023-02-07T07:47:22.492Z,1.71
2023-02-07T07:52:26.106Z,1.80
2023-02-07T07:57:29.725Z,1.88
2023-02-07T08:02:33.246Z,1.98
2023-02-07T08:07:36.855Z,2.04
2023-02-07T08:12:40.725Z,2.12
2023-02-07T08:17:45.729Z,2.17
2023-02-07T08:22:49.758Z,2.37
2023-02-07T08:27:53.714Z,2.55
2023-02-07T08:32:57.200Z,2.71
2023-02-07T08:38:01.019Z,2.89
2023-02-07T08:43:07.402Z,2.95
2023-02-07T08:48:11.023Z,2.94
2023-02-07T08:53:14.645Z,2.95
2023-02-07T08:58:18.256Z,2.99
2023-02-07T09:03:24.537Z,3.08
2023-02-07T09:08:28.054Z,3.36
2023-02-07T09:13:31.671Z,3.51
2023-02-07T09:18:35.184Z,3.68
2023-02-07T09:23:38.704Z,3.80
2023-02-07T09:28:42.328Z,3.92
2023-02-07T09:33:46.055Z,3.97
2023-02-07T09:38:50.072Z,4.16
2023-02-07T09:44:05.113Z,4.28
2023-02-07T09:49:16.560Z,4.33
2023-02-07T09:54:32.262Z,4.30
2023-02-07T10:00:02.860Z,4.22
2023-02-07T10:05:37.350Z,4.27
2023-02-07T10:10:47.525Z,4.29
2023-02-07T10:16:16.126Z,4.33
2023-02-07T10:21:20.149Z,4.41
2023-02-07T10:26:42.113Z,4.41
2023-02-07T10:31:52.478Z,4.56
2023-02-07T10:36:58.394Z,4.69
2023-02-07T10:42:01.868Z,4.78
2023-02-07T10:47:07.862Z,4.90
2023-02-07T10:52:31.936Z,5.02
2023-02-07T10:57:35.972Z,5.10
2023-02-07T11:02:49.145Z,5.15
2023-02-07T11:08:00.295Z,5.09
2023-02-07T11:13:06.004Z,5.05
2023-02-07T11:18:38.287Z,5.07
2023-02-07T11:23:45.056Z,5.10
2023-02-07T11:28:54.287Z,5.22
2023-02-07T11:34:10.132Z,5.41
2023-02-07T11:39:18.837Z,5.41
2023-02-07T11:44:25.055Z,5.49
2023-02-07T11:49:39.590Z,5.21
2023-02-07T11:54:51.013Z,5.00
2023-02-07T12:00:23.280Z,4.86
2023-02-07T12:05:35.824Z,4.73
2023-02-07T12:10:43.108Z,4.68
2023-02-07T12:16:08.961Z,4.72
2023-02-07T12:21:36.438Z,4.82
2023-02-07T12:26:58.789Z,4.69
2023-02-07T12:32:14.473Z,4.52
2023-02-07T12:37:20.775Z,4.44
2023-02-07T12:42:53.779Z,4.41
2023-02-07T12:48:10.925Z,4.40
2023-02-07T12:53:46.094Z,4.44
2023-02-07T12:59:14.987Z,4.45
2023-02-07T13:04:33.757Z,4.57
2023-02-07T13:09:43.716Z,4.81
2023-02-07T13:15:29.826Z,4.89
2023-02-07T13:20:47.782Z,4.93
2023-02-07T13:25:57.746Z,4.93
2023-02-07T13:31:02.420Z,4.74
2023-02-07T13:36:16.043Z,4.59
2023-02-07T13:41:34.305Z,4.45
2023-02-07T13:46:56.672Z,4.32
2023-02-07T13:52:12.978Z,4.24
2023-02-07T13:58:01.877Z,4.26
2023-02-07T14:03:07.037Z,4.15
2023-02-07T14:08:16.799Z,3.87
2023-02-07T14:13:34.744Z,3.74
2023-02-07T14:18:41.121Z,3.49
2023-02-07T14:23:59.678Z,3.33
2023-02-07T14:29:51.552Z,3.27
2023-02-07T14:35:21.257Z,3.18
2023-02-07T14:40:31.757Z,3.21
2023-02-07T14:45:38.166Z,3.17
2023-02-07T14:50:53.006Z,3.04
2023-02-07T14:56:03.133Z,2.85
2023-02-07T15:01:13.981Z,2.69
2023-02-07T15:06:31.675Z,2.57
2023-02-07T15:16:25.913Z,2.31
2023-02-07T15:22:20.441Z,2.20
2023-02-07T15:27:28.780Z,2.14
2023-02-07T15:32:34.420Z,2.14
2023-02-07T15:37:37.137Z,2.10
2023-02-07T15:42:58.894Z,2.03
2023-02-07T15:48:07.257Z,1.96
2023-02-07T15:53:21.066Z,1.92
2023-02-07T15:58:25.202Z,1.82
2023-02-07T16:03:30.481Z,1.67
2023-02-07T16:08:41.214Z,1.55
2023-02-07T16:13:52.948Z,1.48
2023-02-07T16:19:18.300Z,1.47
2023-02-07T16:24:27.060Z,1.54
2023-02-07T16:29:29.201Z,1.57
2023-02-07T16:34:31.737Z,1.59
2023-02-07T16:39:33.982Z,1.45
2023-02-07T16:44:36.880Z,1.34
2023-02-07T16:49:39.581Z,1.30
2023-02-07T16:54:42.783Z,1.27
2023-02-07T16:59:45.089Z,1.25
2023-02-07T17:04:47.361Z,1.27
2023-02-07T17:09:50.059Z,1.29
2023-02-07T17:14:53.164Z,1.24
2023-02-07T17:19:55.357Z,1.20
2023-02-07T17:24:59.684Z,1.12
2023-02-07T17:30:04.869Z,1.04
2023-02-07T17:35:07.751Z,0.95
2023-02-07T17:40:22.201Z,0.91
2023-02-07T17:45:24.799Z,0.82
2023-02-07T17:50:33.280Z,0.72
2023-02-07T17:55:37.045Z,0.72
2023-02-07T18:00:40.106Z,0.75
2023-02-07T18:05:42.602Z,0.81
2023-02-07T18:10:44.842Z,0.79
2023-02-07T18:15:47.024Z,0.79
2023-02-07T18:20:49.298Z,0.75
2023-02-07T18:25:51.788Z,0.72
2023-02-07T18:30:54.155Z,0.68
2023-02-07T18:35:57.499Z,0.66
2023-02-07T18:40:59.674Z,0.64
2023-02-07T18:46:07.474Z,0.65
2023-02-07T18:51:12.216Z,0.66
2023-02-07T18:56:17.490Z,0.64
2023-02-07T19:01:20.739Z,0.63
2023-02-07T19:06:25.119Z,0.64
2023-02-07T19:11:27.473Z,0.69
2023-02-07T19:16:29.812Z,0.76
2023-02-07T19:21:32.203Z,0.82
2023-02-07T19:26:35.414Z,0.86
2023-02-07T19:31:39.951Z,0.88
2023-02-07T19:36:42.246Z,0.88
2023-02-07T19:41:44.418Z,0.85
2023-02-07T19:46:46.675Z,0.85
2023-02-07T19:51:50.838Z,0.83
2023-02-07T19:56:53.021Z,0.77
2023-02-07T20:01:55.429Z,0.70
2023-02-07T20:06:59.640Z,0.62
2023-02-07T20:12:01.827Z,0.51
2023-02-07T20:17:04.224Z,0.43
2023-02-07T20:22:06.506Z,0.33
2023-02-07T20:27:09.422Z,0.25
2023-02-07T20:32:13.744Z,0.14
2023-02-07T20:37:15.723Z,0.10
2023-02-07T20:42:19.241Z,0.09
2023-02-07T20:47:21.424Z,0.11
2023-02-07T20:52:24.425Z,0.11
2023-02-07T20:57:26.815Z,0.22
2023-02-07T21:02:29.147Z,0.27
2023-02-07T21:07:31.798Z,0.30
2023-02-07T21:12:59.282Z,0.33
2023-02-07T21:18:17.229Z,0.39
2023-02-07T21:23:19.617Z,0.49
2023-02-07T21:28:21.938Z,0.53
2023-02-07T21:33:24.090Z,0.59
2023-02-07T21:38:26.378Z,0.71
2023-02-07T21:43:28.554Z,0.82
2023-02-07T21:48:31.150Z,0.88
2023-02-07T21:53:34.155Z,0.94
2023-02-07T21:58:36.852Z,0.95
2023-02-07T22:03:41.233Z,1.00
2023-02-07T22:08:47.685Z,1.12
2023-02-07T22:13:52.299Z,1.21
2023-02-07T22:18:56.679Z,1.31
2023-02-07T22:23:59.351Z,1.38
2023-02-07T22:29:03.471Z,1.44
2023-02-07T22:34:11.513Z,1.52
2023-02-07T22:39:15.966Z,1.60
2023-02-07T22:44:18.113Z,1.70
2023-02-07T22:49:20.302Z,1.80
2023-02-07T22:54:22.480Z,1.82
2023-02-07T22:59:24.664Z,1.83
2023-02-07T23:04:26.849Z,1.81
2023-02-07T23:09:29.038Z,1.78
2023-02-07T23:14:31.322Z,1.76
2023-02-07T23:19:33.503Z,1.73
2023-02-07T23:24:35.789Z,1.72
2023-02-07T23:29:38.487Z,1.70
2023-02-07T23:34:40.670Z,1.71
2023-02-07T23:39:43.061Z,1.72
2023-02-07T23:44:45.348Z,1.71
2023-02-07T23:49:47.736Z,1.65
2023-02-07T23:54:50.024Z,1.61
2023-02-07T23:59:52.313Z,1.53
